createdAt,value
2022-10-14T00:01:10.820Z,6.15
2022-10-14T00:03:39.277Z,5.90
2022-10-14T00:06:08.424Z,5.78
2022-10-14T00:08:38.441Z,5.50
2022-10-14T00:11:11.512Z,5.67
2022-10-14T00:13:39.598Z,5.72
2022-10-14T00:16:14.934Z,5.22
2022-10-14T00:18:42.014Z,4.50
2022-10-14T00:21:09.163Z,4.68
2022-10-14T00:23:36.273Z,4.33
2022-10-14T00:26:03.446Z,5.28
2022-10-14T00:28:30.439Z,4.93
2022-10-14T00:30:59.722Z,4.88
2022-10-14T00:33:27.438Z,5.25
2022-10-14T00:36:03.856Z,4.73
2022-10-14T00:38:30.869Z,4.20
2022-10-14T00:40:57.935Z,4.72
2022-10-14T00:43:27.280Z,4.75
2022-10-14T00:45:54.196Z,4.47
2022-10-14T00:48:25.139Z,4.43
2022-10-14T00:50:56.837Z,4.68
2022-10-14T00:53:23.871Z,3.72
2022-10-14T00:55:50.700Z,3.90
2022-10-14T00:58:18.100Z,3.67
2022-10-14T01:00:45.329Z,3.50
2022-10-14T01:03:22.136Z,3.30
2022-10-14T01:06:00.620Z,3.78
2022-10-14T01:08:47.294Z,3.08
2022-10-14T01:11:23.177Z,3.33
2022-10-14T01:14:23.808Z,3.43
2022-10-14T01:17:01.059Z,3.65
2022-10-14T01:20:05.518Z,3.17
2022-10-14T01:22:53.696Z,2.97
2022-10-14T01:25:32.760Z,3.00
2022-10-14T01:28:31.798Z,2.90
2022-10-14T01:31:03.792Z,2.60
2022-10-14T01:33:40.540Z,3.05
2022-10-14T01:36:13.235Z,2.72
2022-10-14T01:39:04.335Z,2.22
2022-10-14T01:41:36.152Z,2.57
2022-10-14T01:44:09.901Z,2.10
2022-10-14T01:46:40.576Z,1.85
2022-10-14T01:49:21.976Z,2.00
2022-10-14T01:51:53.679Z,1.98
2022-10-14T01:54:28.350Z,2.20
2022-10-14T01:56:59.151Z,2.35
2022-10-14T01:59:27.118Z,2.63
2022-10-14T02:01:54.145Z,2.45
2022-10-14T02:04:23.530Z,2.40
2022-10-14T02:07:17.109Z,2.00
2022-10-14T02:09:56.057Z,2.25
2022-10-14T02:12:47.767Z,2.25
2022-10-14T02:15:37.135Z,2.00
2022-10-14T02:18:19.834Z,1.63
2022-10-14T02:21:00.341Z,2.00
2022-10-14T02:23:35.876Z,2.47
2022-10-14T02:26:04.419Z,1.95
2022-10-14T02:28:33.460Z,1.65
2022-10-14T02:31:06.673Z,1.75
2022-10-14T02:33:47.496Z,1.60
2022-10-14T02:36:18.389Z,1.60
2022-10-14T02:38:47.093Z,1.70
2022-10-14T02:41:19.530Z,1.48
2022-10-14T02:43:46.975Z,1.73
2022-10-14T02:46:19.901Z,1.83
2022-10-14T02:48:46.738Z,1.60
2022-10-14T02:51:13.669Z,1.35
2022-10-14T02:53:40.797Z,1.20
2022-10-14T02:56:08.189Z,1.50
2022-10-14T02:58:35.317Z,1.60
2022-10-14T03:01:04.988Z,1.20
2022-10-14T03:03:31.996Z,1.60
2022-10-14T03:05:58.761Z,1.08
2022-10-14T03:08:25.793Z,0.90
2022-10-14T03:10:52.918Z,1.17
2022-10-14T03:13:20.096Z,1.35
2022-10-14T03:15:51.134Z,1.33
2022-10-14T03:18:18.372Z,1.00
2022-10-14T03:20:46.685Z,1.35
2022-10-14T03:23:14.061Z,1.33
2022-10-14T03:25:43.673Z,1.10
2022-10-14T03:28:10.475Z,1.27
2022-10-14T03:30:37.720Z,0.90
2022-10-14T03:33:05.822Z,1.30
2022-10-14T03:35:32.898Z,1.40
2022-10-14T03:38:00.161Z,1.13
2022-10-14T03:40:27.114Z,0.82
2022-10-14T03:42:53.995Z,1.30
2022-10-14T03:45:21.085Z,1.10
2022-10-14T03:47:48.000Z,1.00
2022-10-14T03:50:14.877Z,1.20
2022-10-14T03:52:46.482Z,0.88
2022-10-14T03:55:14.054Z,1.00
2022-10-14T03:57:40.952Z,0.80
2022-10-14T04:00:08.656Z,0.70
2022-10-14T04:02:35.641Z,0.80
2022-10-14T04:05:02.618Z,1.10
2022-10-14T04:07:29.720Z,2.35
2022-10-14T04:09:59.539Z,1.83
2022-10-14T04:12:26.514Z,1.10
2022-10-14T04:14:53.913Z,0.90
2022-10-14T04:17:21.152Z,1.98
2022-10-14T04:19:48.280Z,1.85
2022-10-14T04:22:19.485Z,2.00
2022-10-14T04:24:46.900Z,1.00
2022-10-14T04:27:13.769Z,1.02
2022-10-14T04:29:40.821Z,1.00
2022-10-14T04:32:08.260Z,0.90
2022-10-14T04:34:52.878Z,1.02
2022-10-14T04:37:23.151Z,1.17
2022-10-14T04:39:50.419Z,1.17
2022-10-14T04:42:22.496Z,1.00
2022-10-14T04:44:49.788Z,1.30
2022-10-14T04:47:22.776Z,1.20
2022-10-14T04:49:49.626Z,1.40
2022-10-14T04:52:25.790Z,1.15
2022-10-14T04:54:52.921Z,2.60
2022-10-14T04:57:25.673Z,4.03
2022-10-14T04:59:52.550Z,2.33
2022-10-14T05:02:27.578Z,1.97
2022-10-14T05:04:54.435Z,1.55
2022-10-14T05:07:26.216Z,1.83
2022-10-14T05:09:56.328Z,3.28
2022-10-14T05:12:29.058Z,3.95
2022-10-14T05:14:55.970Z,8.80
2022-10-14T05:17:26.712Z,6.25
2022-10-14T05:19:53.672Z,2.60
2022-10-14T05:22:20.851Z,2.90
2022-10-14T05:24:47.873Z,3.78
2022-10-14T05:27:15.034Z,2.73
2022-10-14T05:29:42.115Z,2.20
2022-10-14T05:32:08.937Z,2.70
2022-10-14T05:34:35.941Z,3.03
2022-10-14T05:37:03.860Z,1.85
2022-10-14T05:39:33.282Z,3.07
2022-10-14T05:42:00.534Z,4.90
2022-10-14T05:44:30.022Z,2.75
2022-10-14T05:46:56.857Z,1.58
2022-10-14T05:49:24.093Z,2.08
2022-10-14T05:51:50.918Z,2.20
2022-10-14T05:54:17.919Z,1.70
2022-10-14T05:56:45.075Z,1.50
2022-10-14T05:59:12.276Z,1.05
2022-10-14T06:01:40.413Z,1.00
2022-10-14T06:04:07.593Z,1.10
2022-10-14T06:06:37.455Z,0.90
2022-10-14T06:09:08.970Z,0.80
2022-10-14T06:11:38.654Z,0.65
2022-10-14T06:14:05.793Z,0.85
2022-10-14T06:16:33.328Z,0.60
2022-10-14T06:19:00.634Z,0.75
2022-10-14T06:21:27.957Z,0.90
2022-10-14T06:23:55.196Z,0.77
2022-10-14T06:26:22.758Z,0.82
2022-10-14T06:28:50.362Z,0.50
2022-10-14T06:31:17.599Z,0.80
2022-10-14T06:33:45.261Z,0.63
2022-10-14T06:36:12.401Z,0.60
2022-10-14T06:38:40.858Z,0.60
2022-10-14T06:41:08.211Z,1.00
2022-10-14T06:43:35.351Z,0.60
2022-10-14T06:46:03.019Z,0.50
2022-10-14T06:48:30.410Z,0.35
2022-10-14T06:51:01.918Z,0.40
2022-10-14T06:53:29.862Z,0.70
2022-10-14T06:56:05.930Z,0.43
2022-10-14T06:58:34.081Z,0.80
2022-10-14T07:01:03.253Z,0.88
2022-10-14T07:03:30.880Z,0.80
2022-10-14T07:05:58.072Z,0.80
2022-10-14T07:08:25.193Z,1.20
2022-10-14T07:10:52.452Z,1.35
2022-10-14T07:13:19.762Z,1.20
2022-10-14T07:15:50.215Z,1.23
2022-10-14T07:18:17.619Z,1.57
2022-10-14T07:20:44.764Z,1.40
2022-10-14T07:23:12.170Z,1.70
2022-10-14T07:25:39.599Z,0.90
2022-10-14T07:28:07.382Z,0.70
2022-10-14T07:30:35.398Z,1.23
2022-10-14T07:33:02.915Z,1.00
2022-10-14T07:35:30.176Z,1.13
2022-10-14T07:37:59.513Z,1.08
2022-10-14T07:40:27.700Z,1.58
2022-10-14T07:42:54.928Z,1.40
2022-10-14T07:45:22.563Z,1.25
2022-10-14T07:47:52.280Z,1.10
2022-10-14T07:50:20.286Z,1.20
2022-10-14T07:52:47.692Z,1.48
2022-10-14T07:55:15.437Z,1.70
2022-10-14T07:57:42.835Z,1.73
2022-10-14T08:00:11.100Z,1.48
2022-10-14T08:02:38.666Z,1.70
2022-10-14T08:05:36.431Z,1.55
2022-10-14T08:07:56.435Z,2.43
2022-10-14T08:10:23.718Z,2.08
2022-10-14T08:12:50.946Z,2.70
2022-10-14T08:15:19.337Z,1.80
2022-10-14T08:17:46.603Z,2.60
2022-10-14T08:20:13.952Z,2.20
2022-10-14T08:22:41.416Z,2.35
2022-10-14T08:25:08.959Z,1.67
2022-10-14T08:27:36.274Z,1.92
2022-10-14T08:30:08.745Z,1.90
2022-10-14T08:32:38.321Z,1.00
2022-10-14T08:35:06.291Z,1.90
2022-10-14T08:37:33.753Z,1.60
2022-10-14T08:40:01.153Z,1.00
2022-10-14T08:42:40.797Z,1.83
2022-10-14T08:45:18.995Z,1.63
2022-10-14T08:47:47.419Z,1.55
2022-10-14T08:50:28.349Z,1.67
2022-10-14T08:53:12.759Z,1.58
2022-10-14T08:55:51.376Z,1.45
2022-10-14T08:58:33.578Z,1.73
2022-10-14T09:01:16.156Z,2.00
2022-10-14T09:03:43.627Z,1.42
2022-10-14T09:06:24.729Z,1.80
2022-10-14T09:09:13.611Z,2.25
2022-10-14T09:11:45.400Z,1.33
2022-10-14T09:14:26.254Z,2.30
2022-10-14T09:17:03.985Z,1.92
2022-10-14T09:19:42.248Z,1.98
2022-10-14T09:22:14.564Z,1.60
2022-10-14T09:24:42.917Z,2.90
2022-10-14T09:27:16.363Z,2.75
2022-10-14T09:29:55.847Z,2.78
2022-10-14T09:32:41.313Z,2.60
2022-10-14T09:35:28.575Z,2.63
2022-10-14T09:37:59.509Z,2.30
2022-10-14T09:40:45.936Z,3.22
2022-10-14T09:43:19.740Z,2.38
2022-10-14T09:46:03.318Z,2.13
2022-10-14T09:48:49.212Z,2.83
2022-10-14T09:51:30.752Z,2.33
2022-10-14T09:54:04.381Z,3.10
2022-10-14T09:56:37.562Z,2.13
2022-10-14T09:59:24.994Z,2.78
2022-10-14T10:01:59.160Z,2.85
2022-10-14T10:04:32.524Z,2.73
2022-10-14T10:07:02.301Z,2.38
2022-10-14T10:09:29.759Z,2.80
2022-10-14T10:11:57.324Z,2.95
2022-10-14T10:14:29.048Z,3.15
2022-10-14T10:17:08.628Z,1.97
2022-10-14T10:19:43.374Z,3.35
2022-10-14T10:22:26.949Z,2.45
2022-10-14T10:25:03.399Z,3.65
2022-10-14T10:27:42.739Z,2.60
2022-10-14T10:30:27.122Z,3.10
2022-10-14T10:33:23.120Z,2.80
2022-10-14T10:36:41.715Z,3.10
2022-10-14T10:39:43.983Z,2.33
2022-10-14T10:42:20.940Z,2.53
2022-10-14T10:44:51.098Z,2.60
2022-10-14T10:47:24.703Z,3.05
2022-10-14T10:50:00.813Z,2.65
2022-10-14T10:53:05.076Z,2.45
2022-10-14T10:56:00.203Z,2.78
2022-10-14T10:58:33.344Z,2.87
2022-10-14T11:01:15.212Z,2.25
2022-10-14T11:04:02.202Z,2.50
2022-10-14T11:06:33.759Z,2.50
2022-10-14T11:09:06.323Z,2.70
2022-10-14T11:11:52.269Z,2.07
2022-10-14T11:14:34.381Z,1.92
2022-10-14T11:17:20.641Z,2.40
2022-10-14T11:19:59.557Z,1.80
2022-10-14T11:22:59.461Z,2.10
2022-10-14T11:25:38.940Z,1.77
2022-10-14T11:28:46.190Z,1.50
2022-10-14T11:31:40.008Z,1.63
2022-10-14T11:34:25.616Z,1.65
2022-10-14T11:37:12.639Z,1.70
2022-10-14T11:39:55.076Z,1.70
2022-10-14T11:42:52.389Z,1.67
2022-10-14T11:45:34.838Z,1.38
2022-10-14T11:48:18.062Z,1.30
2022-10-14T11:50:49.735Z,1.33
2022-10-14T11:53:39.750Z,1.40
2022-10-14T11:56:29.562Z,1.30
2022-10-14T11:59:01.566Z,1.50
2022-10-14T12:01:35.678Z,1.30
2022-10-14T12:04:12.616Z,1.50
2022-10-14T12:06:49.314Z,1.13
2022-10-14T12:10:01.279Z,1.40
2022-10-14T12:12:30.992Z,0.90
2022-10-14T12:15:14.029Z,1.10
2022-10-14T12:17:51.250Z,1.42
2022-10-14T12:20:43.681Z,1.27
2022-10-14T12:23:18.359Z,1.02
2022-10-14T12:26:00.946Z,1.05
2022-10-14T12:28:28.222Z,1.00
2022-10-14T12:31:22.048Z,1.20
2022-10-14T12:34:13.957Z,1.03
2022-10-14T12:36:45.880Z,0.90
2022-10-14T12:39:18.818Z,0.80
2022-10-14T12:41:59.523Z,1.23
2022-10-14T12:44:50.595Z,1.25
2022-10-14T12:47:26.020Z,1.20
2022-10-14T12:49:57.054Z,1.00
2022-10-14T12:52:28.801Z,0.88
2022-10-14T12:54:56.380Z,0.90
2022-10-14T12:57:37.477Z,1.08
2022-10-14T13:00:27.035Z,0.73
2022-10-14T13:02:56.453Z,0.80
2022-10-14T13:05:29.248Z,0.85
2022-10-14T13:08:20.980Z,1.80
2022-10-14T13:10:54.731Z,1.45
2022-10-14T13:13:40.155Z,0.90
2022-10-14T13:16:08.500Z,1.20
2022-10-14T13:18:49.436Z,1.85
2022-10-14T13:21:34.678Z,1.45
2022-10-14T13:24:21.141Z,1.10
2022-10-14T13:26:59.611Z,1.20
2022-10-14T13:29:51.036Z,1.05
2022-10-14T13:32:31.115Z,0.82
2022-10-14T13:35:16.329Z,1.00
2022-10-14T13:37:53.247Z,1.40
2022-10-14T13:40:20.456Z,0.80
2022-10-14T13:42:58.671Z,1.15
2022-10-14T13:46:11.591Z,0.77
2022-10-14T13:48:46.001Z,0.93
2022-10-14T13:51:31.966Z,0.80
2022-10-14T13:54:17.952Z,0.50
2022-10-14T13:57:12.488Z,0.98
2022-10-14T14:00:37.872Z,0.80
2022-10-14T14:02:31.759Z,1.70
2022-10-14T14:04:59.777Z,1.90
2022-10-14T14:08:14.117Z,1.40
2022-10-14T14:10:24.679Z,2.40
2022-10-14T14:12:52.777Z,2.60
2022-10-14T14:15:29.642Z,2.33
2022-10-14T14:17:56.514Z,2.03
2022-10-14T14:20:26.222Z,2.63
2022-10-14T14:22:53.011Z,2.97
2022-10-14T14:25:46.497Z,2.35
2022-10-14T14:28:14.098Z,2.25
2022-10-14T14:30:41.765Z,2.45
2022-10-14T14:33:13.552Z,1.83
2022-10-14T14:35:56.161Z,2.30
2022-10-14T14:38:28.888Z,2.00
2022-10-14T14:41:23.452Z,2.25
2022-10-14T14:44:20.962Z,1.90
2022-10-14T14:46:44.198Z,2.23
2022-10-14T14:49:23.083Z,1.65
2022-10-14T14:51:50.500Z,1.30
2022-10-14T14:54:20.140Z,1.42
2022-10-14T14:56:56.714Z,0.80
2022-10-14T14:59:36.942Z,1.00
2022-10-14T15:02:13.717Z,2.50
2022-10-14T15:04:40.697Z,4.10
2022-10-14T15:07:15.337Z,2.42
2022-10-14T15:09:51.488Z,2.03
2022-10-14T15:12:21.757Z,2.07
2022-10-14T15:14:51.730Z,2.10
2022-10-14T15:17:27.353Z,1.67
2022-10-14T15:19:54.870Z,3.22
2022-10-14T15:22:42.034Z,1.90
2022-10-14T15:25:23.157Z,1.63
2022-10-14T15:27:57.958Z,2.95
2022-10-14T15:30:26.369Z,2.00
2022-10-14T15:32:56.273Z,4.20
2022-10-14T15:35:23.979Z,2.50
2022-10-14T15:37:51.720Z,2.17
2022-10-14T15:40:26.359Z,2.75
2022-10-14T15:42:53.500Z,2.65
2022-10-14T15:45:20.537Z,2.85
2022-10-14T15:47:53.851Z,2.65
2022-10-14T15:50:24.171Z,2.07
2022-10-14T15:52:52.322Z,3.28
2022-10-14T15:55:37.156Z,3.47
2022-10-14T15:58:04.068Z,3.22
2022-10-14T16:00:31.949Z,6.40
2022-10-14T16:02:59.443Z,11.57
2022-10-14T16:05:27.648Z,12.10
2022-10-14T16:07:55.091Z,13.23
2022-10-14T16:10:24.204Z,19.45
2022-10-14T16:12:55.101Z,30.92
2022-10-14T16:15:39.013Z,26.27
2022-10-14T16:18:06.015Z,12.82
2022-10-14T16:20:33.004Z,13.20
2022-10-14T16:23:00.017Z,12.20
2022-10-14T16:25:37.208Z,10.63
2022-10-14T16:28:07.526Z,7.17
2022-10-14T16:30:41.406Z,6.85
2022-10-14T16:33:08.366Z,5.88
2022-10-14T16:35:35.354Z,5.88
2022-10-14T16:38:02.693Z,6.10
2022-10-14T16:40:34.280Z,5.43
2022-10-14T16:43:04.020Z,6.45
2022-10-14T16:45:31.588Z,3.95
2022-10-14T16:47:58.462Z,3.10
2022-10-14T16:50:25.359Z,3.03
2022-10-14T16:52:52.296Z,3.20
2022-10-14T16:55:19.770Z,4.60
2022-10-14T16:57:47.256Z,4.60
2022-10-14T17:00:16.431Z,2.45
2022-10-14T17:02:43.554Z,3.35
2022-10-14T17:05:10.531Z,2.50
2022-10-14T17:07:37.624Z,2.78
2022-10-14T17:10:05.058Z,2.35
2022-10-14T17:12:32.419Z,2.40
2022-10-14T17:14:59.583Z,4.43
2022-10-14T17:17:26.520Z,3.27
2022-10-14T17:19:53.674Z,3.00
2022-10-14T17:22:21.399Z,3.38
2022-10-14T17:24:49.314Z,4.00
2022-10-14T17:27:19.415Z,3.72
2022-10-14T17:29:46.881Z,5.93
2022-10-14T17:32:13.696Z,4.50
2022-10-14T17:34:43.255Z,2.88
2022-10-14T17:37:10.232Z,2.78
2022-10-14T17:39:37.483Z,2.50
2022-10-14T17:42:04.639Z,2.97
2022-10-14T17:44:31.736Z,2.80
2022-10-14T17:46:58.579Z,2.58
2022-10-14T17:49:25.602Z,2.83
2022-10-14T17:51:52.579Z,2.58
2022-10-14T17:54:19.592Z,2.60
2022-10-14T17:56:46.715Z,2.65
2022-10-14T17:59:13.617Z,2.15
2022-10-14T18:02:01.442Z,1.45
2022-10-14T18:04:27.852Z,1.95
2022-10-14T18:06:54.560Z,1.30
2022-10-14T18:09:21.347Z,1.80
2022-10-14T18:12:08.733Z,1.80
2022-10-14T18:14:35.460Z,2.10
2022-10-14T18:17:02.714Z,3.92
2022-10-14T18:19:29.603Z,2.07
2022-10-14T18:21:56.419Z,2.22
2022-10-14T18:24:23.847Z,2.50
2022-10-14T18:26:51.476Z,2.20
2022-10-14T18:29:19.082Z,3.58
2022-10-14T18:31:46.152Z,8.50
2022-10-14T18:34:12.941Z,5.15
2022-10-14T18:36:40.272Z,4.05
2022-10-14T18:39:10.980Z,3.55
2022-10-14T18:41:38.182Z,3.17
2022-10-14T18:44:06.620Z,3.60
2022-10-14T18:46:35.984Z,5.25
2022-10-14T18:49:04.521Z,3.50
2022-10-14T18:51:35.020Z,3.70
2022-10-14T18:54:24.259Z,3.22
2022-10-14T18:56:52.317Z,3.80
2022-10-14T18:59:22.195Z,4.35
2022-10-14T19:01:50.758Z,3.33
2022-10-14T19:04:17.739Z,4.07
2022-10-14T19:06:45.018Z,3.92
2022-10-14T19:09:12.139Z,4.60
2022-10-14T19:11:44.431Z,6.50
2022-10-14T19:14:11.355Z,7.15
2022-10-14T19:16:39.335Z,7.05
2022-10-14T19:19:12.085Z,6.90
2022-10-14T19:21:39.439Z,6.27
2022-10-14T19:24:07.618Z,6.68
2022-10-14T19:26:36.672Z,9.23
2022-10-14T19:29:07.780Z,13.18
2022-10-14T19:31:38.199Z,9.48
2022-10-14T19:34:08.111Z,28.07
2022-10-14T19:36:37.134Z,26.10
2022-10-14T19:39:05.738Z,28.33
2022-10-14T19:41:35.808Z,18.92
2022-10-14T19:44:03.067Z,19.05
2022-10-14T19:46:30.416Z,33.10
2022-10-14T19:48:59.581Z,15.52
2022-10-14T19:51:27.238Z,12.85
2022-10-14T19:53:58.259Z,12.73
2022-10-14T19:56:26.675Z,16.02
2022-10-14T19:58:56.248Z,12.70
2022-10-14T20:01:25.604Z,18.88
2022-10-14T20:03:54.199Z,12.65
2022-10-14T20:06:22.450Z,13.93
2022-10-14T20:08:50.018Z,15.65
2022-10-14T20:11:18.517Z,14.77
2022-10-14T20:13:46.757Z,16.52
2022-10-14T20:16:14.850Z,10.95
2022-10-14T20:18:42.203Z,10.18
2022-10-14T20:21:12.735Z,8.00
2022-10-14T20:23:40.297Z,8.80
2022-10-14T20:26:12.069Z,7.57
2022-10-14T20:28:40.530Z,7.70
2022-10-14T20:31:10.188Z,8.70
2022-10-14T20:33:38.243Z,8.18
2022-10-14T20:36:12.838Z,6.23
2022-10-14T20:38:41.086Z,8.18
2022-10-14T20:41:23.481Z,7.38
2022-10-14T20:43:51.486Z,6.28
2022-10-14T20:46:20.960Z,4.75
2022-10-14T20:48:48.534Z,5.43
2022-10-14T20:51:17.686Z,4.50
2022-10-14T20:53:44.971Z,4.60
2022-10-14T20:56:13.643Z,5.00
2022-10-14T20:58:41.813Z,5.43
2022-10-14T21:01:17.826Z,4.50
2022-10-14T21:03:47.175Z,4.65
2022-10-14T21:06:17.005Z,4.95
2022-10-14T21:08:44.949Z,4.57
2022-10-14T21:11:15.502Z,4.68
2022-10-14T21:13:54.335Z,11.70
2022-10-14T21:16:32.129Z,12.02
2022-10-14T21:19:05.701Z,10.27
2022-10-14T21:21:38.367Z,8.30
2022-10-14T21:24:06.411Z,5.80
2022-10-14T21:26:33.526Z,5.77
2022-10-14T21:29:04.449Z,6.90
2022-10-14T21:31:32.455Z,6.30
2022-10-14T21:34:05.424Z,5.82
2022-10-14T21:36:38.175Z,5.90
2022-10-14T21:39:07.198Z,5.40
2022-10-14T21:41:34.444Z,5.10
2022-10-14T21:44:01.888Z,5.72
2022-10-14T21:46:28.999Z,5.32
2022-10-14T21:48:57.649Z,4.93
2022-10-14T21:51:28.373Z,5.70
2022-10-14T21:53:56.052Z,5.22
2022-10-14T21:56:24.371Z,5.10
2022-10-14T21:58:51.833Z,5.45
2022-10-14T22:01:29.860Z,5.03
2022-10-14T22:04:04.366Z,5.10
2022-10-14T22:06:33.681Z,5.88
2022-10-14T22:09:03.416Z,6.13
2022-10-14T22:11:36.806Z,6.32
2022-10-14T22:14:06.809Z,6.53
2022-10-14T22:16:35.275Z,6.80
2022-10-14T22:19:03.898Z,6.20
2022-10-14T22:21:33.754Z,6.47
2022-10-14T22:24:01.423Z,6.40
2022-10-14T22:26:30.399Z,6.10
2022-10-14T22:29:00.298Z,6.53
2022-10-14T22:31:27.803Z,6.50
2022-10-14T22:33:55.043Z,5.47
2022-10-14T22:36:25.043Z,6.28
2022-10-14T22:38:53.606Z,6.88
2022-10-14T22:41:22.049Z,5.67
2022-10-14T22:43:51.436Z,7.30
2022-10-14T22:46:20.490Z,8.52
2022-10-14T22:48:48.732Z,8.75
2022-10-14T22:51:19.041Z,7.97
2022-10-14T22:53:46.540Z,6.17
2022-10-14T22:56:17.172Z,6.57
2022-10-14T22:58:44.165Z,6.28
2022-10-14T23:01:16.127Z,5.95
2022-10-14T23:03:43.870Z,5.75
2022-10-14T23:06:12.838Z,6.10
2022-10-14T23:08:40.858Z,6.05
2022-10-14T23:11:09.214Z,5.68
2022-10-14T23:13:36.159Z,6.05
2022-10-14T23:16:11.268Z,5.53
2022-10-14T23:18:38.599Z,4.67
2022-10-14T23:21:17.902Z,4.30
2022-10-14T23:23:45.959Z,4.38
2022-10-14T23:26:15.631Z,4.60
2022-10-14T23:28:42.892Z,4.05
2022-10-14T23:31:11.795Z,3.87
2022-10-14T23:33:39.211Z,3.85
2022-10-14T23:36:08.236Z,4.20
2022-10-14T23:38:35.931Z,4.82
2022-10-14T23:41:04.277Z,4.43
2022-10-14T23:43:31.376Z,4.97
2022-10-14T23:45:58.436Z,4.80
2022-10-14T23:48:27.243Z,4.30
2022-10-14T23:50:54.928Z,4.82
2022-10-14T23:53:22.521Z,4.85
2022-10-14T23:55:49.631Z,4.57
2022-10-14T23:58:16.548Z,4.63
